createdAt,value
2019-03-31T00:01:18.756Z,27.70
2019-03-31T00:03:47.016Z,27.65
2019-03-31T00:06:15.275Z,28.31
2019-03-31T00:08:43.558Z,28.18
2019-03-31T00:11:11.981Z,28.39
2019-03-31T00:13:40.238Z,27.80
2019-03-31T00:16:08.510Z,28.25
2019-03-31T00:18:36.797Z,26.77
2019-03-31T00:21:05.135Z,27.24
2019-03-31T00:23:33.392Z,28.17
2019-03-31T00:26:01.656Z,28.41
2019-03-31T00:28:29.950Z,28.49
2019-03-31T00:30:58.215Z,28.67
2019-03-31T00:33:26.502Z,28.68
2019-03-31T00:35:54.871Z,28.82
2019-03-31T00:38:23.140Z,28.75
2019-03-31T00:40:51.386Z,28.42
2019-03-31T00:43:19.760Z,28.64
2019-03-31T00:45:48.031Z,28.95
2019-03-31T00:48:16.299Z,28.25
2019-03-31T00:50:44.572Z,28.23
2019-03-31T00:53:13.873Z,28.44
2019-03-31T00:55:42.158Z,28.24
2019-03-31T00:58:10.409Z,28.29
2019-03-31T01:00:46.311Z,28.44
2019-03-31T01:03:15.126Z,28.46
2019-03-31T01:05:44.166Z,28.66
2019-03-31T01:08:13.028Z,28.61
2019-03-31T01:10:42.620Z,28.68
2019-03-31T01:13:11.269Z,28.63
2019-03-31T01:15:39.622Z,28.20
2019-03-31T01:18:08.665Z,27.77
2019-03-31T01:20:36.924Z,26.83
2019-03-31T01:23:05.577Z,27.36
2019-03-31T01:25:33.847Z,27.27
2019-03-31T01:28:02.121Z,27.56
2019-03-31T01:30:30.376Z,27.45
2019-03-31T01:32:58.920Z,27.36
2019-03-31T01:35:27.237Z,27.22
2019-03-31T01:37:55.741Z,27.96
2019-03-31T01:40:24.013Z,28.36
2019-03-31T01:42:52.278Z,28.39
2019-03-31T01:45:20.698Z,28.53
2019-03-31T01:47:48.986Z,28.64
2019-03-31T01:50:17.307Z,28.02
2019-03-31T01:52:45.586Z,27.75
2019-03-31T01:55:13.877Z,27.37
2019-03-31T01:57:42.120Z,27.60
2019-03-31T02:00:12.471Z,28.51
2019-03-31T02:02:40.739Z,28.91
2019-03-31T02:05:09.092Z,27.99
2019-03-31T02:07:37.408Z,27.49
2019-03-31T02:10:06.770Z,27.46
2019-03-31T02:12:35.041Z,27.49
2019-03-31T02:15:05.543Z,28.21
2019-03-31T02:17:33.807Z,28.22
2019-03-31T02:20:02.072Z,28.31
2019-03-31T02:22:30.352Z,28.84
2019-03-31T02:24:58.611Z,28.10
2019-03-31T02:27:26.942Z,28.59
2019-03-31T02:29:55.207Z,28.28
2019-03-31T02:32:24.797Z,28.73
2019-03-31T02:34:53.411Z,28.94
2019-03-31T02:37:21.665Z,28.85
2019-03-31T02:39:49.930Z,27.67
2019-03-31T02:42:18.202Z,27.58
2019-03-31T02:44:46.457Z,26.90
2019-03-31T02:47:14.764Z,27.73
2019-03-31T02:49:42.984Z,28.19
2019-03-31T02:52:11.429Z,27.48
2019-03-31T02:54:39.781Z,28.18
2019-03-31T02:57:08.313Z,28.34
2019-03-31T02:59:36.935Z,28.34
2019-03-31T03:02:05.198Z,27.06
2019-03-31T03:04:34.131Z,25.80
2019-03-31T03:07:03.857Z,26.73
2019-03-31T03:09:32.976Z,26.76
2019-03-31T03:12:01.616Z,26.92
2019-03-31T03:14:33.082Z,27.20
2019-03-31T03:17:01.356Z,27.04
2019-03-31T03:19:29.624Z,25.87
2019-03-31T03:21:57.895Z,25.92
2019-03-31T03:24:26.150Z,26.33
2019-03-31T03:26:54.419Z,26.79
2019-03-31T03:29:22.689Z,27.18
2019-03-31T03:31:51.193Z,27.14
2019-03-31T03:34:19.492Z,27.39
2019-03-31T03:36:47.741Z,27.48
2019-03-31T03:39:15.999Z,26.99
2019-03-31T03:41:44.391Z,26.43
2019-03-31T03:44:12.652Z,26.09
2019-03-31T03:46:40.920Z,26.42
2019-03-31T03:49:09.335Z,26.49
2019-03-31T03:51:37.710Z,27.00
2019-03-31T03:54:06.047Z,25.31
2019-03-31T03:56:34.297Z,26.40
2019-03-31T03:59:02.562Z,26.63
2019-03-31T04:01:31.880Z,25.84
2019-03-31T04:04:00.153Z,26.36
2019-03-31T04:06:28.412Z,25.70
2019-03-31T04:08:56.667Z,25.71
2019-03-31T04:11:25.266Z,26.55
2019-03-31T04:13:53.590Z,24.85
2019-03-31T04:16:21.916Z,26.20
2019-03-31T04:18:50.169Z,26.27
2019-03-31T04:21:18.442Z,26.31
2019-03-31T04:23:46.709Z,25.91
2019-03-31T04:26:15.044Z,26.68
2019-03-31T04:28:43.373Z,26.92
2019-03-31T04:31:11.618Z,25.71
2019-03-31T04:33:50.714Z,25.79
2019-03-31T04:36:09.859Z,26.19
2019-03-31T04:38:38.124Z,24.91
2019-03-31T04:41:06.391Z,25.26
2019-03-31T04:43:34.780Z,26.62
2019-03-31T04:46:03.040Z,26.35
2019-03-31T04:48:31.302Z,26.52
2019-03-31T04:50:59.565Z,25.82
2019-03-31T04:53:27.808Z,25.86
2019-03-31T04:55:56.062Z,26.72
2019-03-31T04:58:24.325Z,26.21
2019-03-31T05:00:52.574Z,26.37
2019-03-31T05:03:20.822Z,26.06
2019-03-31T05:05:49.100Z,26.06
2019-03-31T05:08:17.352Z,25.75
2019-03-31T05:10:45.616Z,25.40
2019-03-31T05:13:13.872Z,25.17
2019-03-31T05:15:42.126Z,26.00
2019-03-31T05:18:10.395Z,26.15
2019-03-31T05:20:38.659Z,25.34
2019-03-31T05:23:06.932Z,25.71
2019-03-31T05:25:35.177Z,25.75
2019-03-31T05:28:03.435Z,25.78
2019-03-31T05:30:31.690Z,25.76
2019-03-31T05:33:00.430Z,26.39
2019-03-31T05:35:28.683Z,26.73
2019-03-31T05:37:56.994Z,24.38
2019-03-31T05:40:25.256Z,25.75
2019-03-31T05:42:53.528Z,26.04
2019-03-31T05:45:21.792Z,25.07
2019-03-31T05:47:50.040Z,23.93
2019-03-31T05:50:18.340Z,26.50
2019-03-31T05:52:46.593Z,26.31
2019-03-31T05:55:14.860Z,26.91
2019-03-31T05:57:43.112Z,27.13
2019-03-31T06:00:11.363Z,26.91
2019-03-31T06:02:39.644Z,27.15
2019-03-31T06:05:07.898Z,26.03
2019-03-31T06:07:36.168Z,26.80
2019-03-31T06:10:06.480Z,27.46
2019-03-31T06:12:34.798Z,27.64
2019-03-31T06:15:03.128Z,27.59
2019-03-31T06:17:31.377Z,27.71
2019-03-31T06:19:59.664Z,27.73
2019-03-31T06:22:27.944Z,27.11
2019-03-31T06:24:56.213Z,25.92
2019-03-31T06:27:24.470Z,26.08
2019-03-31T06:29:52.744Z,27.71
2019-03-31T06:32:21.012Z,28.25
2019-03-31T06:34:49.281Z,27.45
2019-03-31T06:37:17.552Z,27.07
2019-03-31T06:39:45.809Z,27.06
2019-03-31T06:42:14.066Z,26.01
2019-03-31T06:44:42.333Z,27.60
2019-03-31T06:47:10.609Z,27.42
2019-03-31T06:49:38.873Z,28.27
2019-03-31T06:52:07.122Z,27.68
2019-03-31T06:54:35.402Z,27.52
2019-03-31T06:57:03.663Z,28.72
2019-03-31T06:59:31.911Z,28.72
2019-03-31T07:02:03.020Z,28.67
2019-03-31T07:04:30.173Z,29.26
2019-03-31T07:06:58.431Z,28.73
2019-03-31T07:09:26.915Z,28.93
2019-03-31T07:11:55.199Z,29.29
2019-03-31T07:14:23.488Z,29.59
2019-03-31T07:16:51.745Z,30.06
2019-03-31T07:19:20.023Z,29.50
2019-03-31T07:21:48.282Z,29.76
2019-03-31T07:24:16.549Z,27.05
2019-03-31T07:26:44.838Z,28.44
2019-03-31T07:29:13.104Z,28.27
2019-03-31T07:31:41.403Z,28.03
2019-03-31T07:34:09.665Z,28.66
2019-03-31T07:36:37.932Z,28.81
2019-03-31T07:39:06.905Z,27.30
2019-03-31T07:41:36.216Z,26.80
2019-03-31T07:44:04.500Z,27.73
2019-03-31T07:46:32.769Z,28.45
2019-03-31T07:49:01.048Z,27.43
2019-03-31T07:51:29.327Z,27.68
2019-03-31T07:53:57.626Z,27.66
2019-03-31T07:56:25.911Z,28.18
2019-03-31T07:58:54.218Z,28.76
2019-03-31T08:01:22.445Z,29.21
2019-03-31T08:03:50.708Z,28.79
2019-03-31T08:06:18.983Z,29.35
2019-03-31T08:08:47.239Z,29.84
2019-03-31T08:11:17.071Z,29.93
2019-03-31T08:13:45.588Z,29.22
2019-03-31T08:16:13.858Z,29.42
2019-03-31T08:18:42.128Z,30.23
2019-03-31T08:21:10.393Z,30.58
2019-03-31T08:23:38.669Z,29.45
2019-03-31T08:26:06.933Z,30.81
2019-03-31T08:28:35.199Z,30.82
2019-03-31T08:31:03.474Z,30.99
2019-03-31T08:33:31.725Z,31.31
2019-03-31T08:36:00.013Z,30.70
2019-03-31T08:38:28.280Z,29.76
2019-03-31T08:40:56.538Z,29.97
2019-03-31T08:43:24.869Z,30.06
2019-03-31T08:45:53.124Z,29.37
2019-03-31T08:48:21.399Z,31.18
2019-03-31T08:50:49.678Z,32.42
2019-03-31T08:53:17.945Z,32.01
2019-03-31T08:55:46.268Z,30.95
2019-03-31T08:58:14.504Z,32.01
2019-03-31T09:00:44.411Z,32.04
2019-03-31T09:03:12.681Z,33.03
2019-03-31T09:05:41.229Z,33.12
2019-03-31T09:08:09.471Z,32.64
2019-03-31T09:10:37.739Z,32.46
2019-03-31T09:13:06.109Z,33.29
2019-03-31T09:15:34.370Z,32.12
2019-03-31T09:18:02.629Z,32.84
2019-03-31T09:20:30.917Z,34.08
2019-03-31T09:22:59.183Z,31.42
2019-03-31T09:25:27.446Z,32.07
2019-03-31T09:27:55.741Z,31.59
2019-03-31T09:30:24.020Z,31.72
2019-03-31T09:32:52.288Z,32.91
2019-03-31T09:35:20.558Z,33.27
2019-03-31T09:37:48.847Z,33.98
2019-03-31T09:40:17.976Z,33.96
2019-03-31T09:42:46.234Z,34.94
2019-03-31T09:45:14.881Z,34.85
2019-03-31T09:47:43.163Z,34.94
2019-03-31T09:50:16.985Z,35.23
2019-03-31T09:52:43.758Z,33.41
2019-03-31T09:55:12.096Z,34.27
2019-03-31T09:57:40.370Z,34.61
2019-03-31T10:00:11.147Z,35.06
2019-03-31T10:02:39.541Z,35.79
2019-03-31T10:05:07.942Z,35.80
2019-03-31T10:07:36.314Z,34.95
2019-03-31T10:10:10.847Z,34.25
2019-03-31T10:12:39.106Z,35.50
2019-03-31T10:15:08.828Z,33.37
2019-03-31T10:17:37.103Z,34.03
2019-03-31T10:20:06.826Z,34.26
2019-03-31T10:22:35.092Z,35.15
2019-03-31T10:25:04.615Z,34.58
2019-03-31T10:27:32.895Z,33.28
2019-03-31T10:30:01.178Z,33.82
2019-03-31T10:32:29.453Z,33.10
2019-03-31T10:34:57.741Z,33.97
2019-03-31T10:37:27.543Z,33.84
2019-03-31T10:39:55.821Z,35.89
2019-03-31T10:42:24.106Z,36.15
2019-03-31T10:44:52.398Z,35.73
2019-03-31T10:47:20.665Z,36.67
2019-03-31T10:49:48.955Z,36.28
2019-03-31T10:52:17.211Z,36.70
2019-03-31T10:54:45.474Z,36.60
2019-03-31T10:57:13.782Z,36.87
2019-03-31T10:59:42.070Z,36.59
2019-03-31T11:02:10.360Z,36.66
2019-03-31T11:04:38.644Z,37.16
2019-03-31T11:07:06.942Z,37.53
2019-03-31T11:09:35.228Z,37.83
2019-03-31T11:12:03.511Z,37.78
2019-03-31T11:14:31.812Z,35.98
2019-03-31T11:17:00.090Z,38.06
2019-03-31T11:19:28.349Z,37.55
2019-03-31T11:22:01.218Z,37.85
2019-03-31T11:24:29.524Z,37.17
2019-03-31T11:26:57.779Z,37.00
2019-03-31T11:29:26.057Z,35.28
2019-03-31T11:31:54.332Z,37.10
2019-03-31T11:34:22.601Z,38.50
2019-03-31T11:36:50.891Z,39.47
2019-03-31T11:39:19.183Z,39.66
2019-03-31T11:41:47.455Z,39.51
2019-03-31T11:44:15.792Z,39.55
2019-03-31T11:46:44.094Z,39.59
2019-03-31T11:49:12.394Z,40.14
2019-03-31T11:51:40.679Z,40.31
2019-03-31T11:54:08.955Z,40.42
2019-03-31T11:56:37.235Z,41.39
2019-03-31T11:59:05.532Z,37.48
2019-03-31T12:01:33.810Z,38.99
2019-03-31T12:04:02.079Z,41.10
2019-03-31T12:06:30.347Z,40.13
2019-03-31T12:08:58.625Z,37.90
2019-03-31T12:11:26.993Z,36.96
2019-03-31T12:13:56.211Z,36.69
2019-03-31T12:16:27.613Z,39.27
2019-03-31T12:18:56.007Z,38.47
2019-03-31T12:21:24.360Z,36.64
2019-03-31T12:23:52.641Z,36.24
2019-03-31T12:26:20.924Z,36.22
2019-03-31T12:28:49.203Z,37.89
2019-03-31T12:31:17.494Z,36.94
2019-03-31T12:33:45.771Z,39.53
2019-03-31T12:36:14.175Z,41.56
2019-03-31T12:38:42.481Z,43.61
2019-03-31T12:41:10.734Z,44.65
2019-03-31T12:43:39.076Z,45.56
2019-03-31T12:46:07.380Z,44.85
2019-03-31T12:48:35.637Z,45.15
2019-03-31T12:51:04.023Z,45.26
2019-03-31T12:53:32.279Z,44.52
2019-03-31T12:56:00.802Z,46.21
2019-03-31T12:58:29.187Z,47.62
2019-03-31T13:00:57.531Z,46.71
2019-03-31T13:03:25.813Z,44.47
2019-03-31T13:05:54.074Z,41.43
2019-03-31T13:08:22.331Z,39.99
2019-03-31T13:10:50.685Z,41.67
2019-03-31T13:13:18.951Z,42.75
2019-03-31T13:15:47.231Z,45.68
2019-03-31T13:18:15.534Z,43.50
2019-03-31T13:20:43.898Z,41.22
2019-03-31T13:23:12.167Z,43.82
2019-03-31T13:25:40.465Z,45.15
2019-03-31T13:28:08.713Z,45.76
2019-03-31T13:30:36.980Z,42.37
2019-03-31T13:33:05.317Z,43.61
2019-03-31T13:35:33.673Z,46.06
2019-03-31T13:38:11.020Z,47.49
2019-03-31T13:40:31.926Z,43.84
2019-03-31T13:43:00.318Z,45.97
2019-03-31T13:45:28.589Z,45.18
2019-03-31T13:47:58.684Z,45.13
2019-03-31T13:50:26.835Z,47.01
2019-03-31T13:52:55.085Z,47.57
2019-03-31T13:55:23.377Z,48.69
2019-03-31T13:57:52.774Z,46.94
2019-03-31T14:00:36.023Z,47.31
2019-03-31T14:03:04.515Z,48.36
2019-03-31T14:05:32.778Z,48.37
2019-03-31T14:08:01.042Z,49.33
2019-03-31T14:10:29.382Z,48.35
2019-03-31T14:12:57.650Z,48.29
2019-03-31T14:15:25.918Z,47.35
2019-03-31T14:17:54.214Z,47.90
2019-03-31T14:20:22.530Z,48.95
2019-03-31T14:22:51.079Z,43.03
2019-03-31T14:25:19.382Z,42.12
2019-03-31T14:27:48.622Z,42.33
2019-03-31T14:30:19.335Z,43.26
2019-03-31T14:32:47.682Z,46.43
2019-03-31T14:35:16.028Z,46.43
2019-03-31T14:37:44.305Z,48.71
2019-03-31T14:40:12.569Z,49.77
2019-03-31T14:42:40.859Z,49.18
2019-03-31T14:45:10.828Z,47.24
2019-03-31T14:47:39.124Z,47.00
2019-03-31T14:50:07.466Z,48.80
2019-03-31T14:52:35.749Z,49.39
2019-03-31T14:55:04.764Z,48.36
2019-03-31T14:57:33.031Z,49.52
2019-03-31T15:00:13.967Z,48.12
2019-03-31T15:02:31.307Z,48.09
2019-03-31T15:04:59.574Z,48.72
2019-03-31T15:07:27.891Z,46.10
2019-03-31T15:09:56.132Z,47.71
2019-03-31T15:12:24.406Z,45.99
2019-03-31T15:14:52.680Z,42.14
2019-03-31T15:17:20.961Z,42.14
2019-03-31T15:19:49.245Z,45.15
2019-03-31T15:22:17.492Z,45.03
2019-03-31T15:24:45.770Z,46.04
2019-03-31T15:27:14.053Z,45.08
2019-03-31T15:29:42.391Z,45.69
2019-03-31T15:32:10.681Z,43.74
2019-03-31T15:34:38.951Z,45.84
2019-03-31T15:37:07.220Z,46.49
2019-03-31T15:39:35.491Z,44.05
2019-03-31T15:42:03.783Z,44.05
2019-03-31T15:44:32.046Z,44.31
2019-03-31T15:47:00.325Z,45.26
2019-03-31T15:49:28.605Z,43.64
2019-03-31T15:51:56.877Z,44.32
2019-03-31T15:54:25.172Z,44.72
2019-03-31T15:56:53.472Z,41.99
2019-03-31T15:59:21.763Z,42.69
2019-03-31T16:01:50.047Z,42.08
2019-03-31T16:04:18.335Z,41.73
2019-03-31T16:06:46.685Z,41.06
2019-03-31T16:09:23.362Z,39.40
2019-03-31T16:11:53.757Z,36.87
2019-03-31T16:14:14.986Z,36.26
2019-03-31T16:16:43.277Z,36.54
2019-03-31T16:19:11.569Z,36.29
2019-03-31T16:21:39.892Z,37.29
2019-03-31T16:24:08.104Z,36.76
2019-03-31T16:26:36.512Z,36.63
2019-03-31T16:29:04.882Z,35.89
2019-03-31T16:31:33.174Z,35.50
2019-03-31T16:34:01.440Z,35.33
2019-03-31T16:36:29.714Z,34.74
2019-03-31T16:38:57.991Z,33.41
2019-03-31T16:41:26.273Z,33.92
2019-03-31T16:43:54.574Z,35.40
2019-03-31T16:46:22.861Z,35.46
2019-03-31T16:48:51.157Z,33.84
2019-03-31T16:51:19.436Z,33.78
2019-03-31T16:53:47.749Z,33.73
2019-03-31T16:56:16.023Z,33.84
2019-03-31T16:58:44.312Z,33.03
2019-03-31T17:01:12.600Z,33.85
2019-03-31T17:03:44.711Z,33.95
2019-03-31T17:06:13.823Z,34.35
2019-03-31T17:08:42.169Z,33.86
2019-03-31T17:11:10.469Z,33.75
2019-03-31T17:13:38.766Z,34.66
2019-03-31T17:16:07.043Z,35.43
2019-03-31T17:18:35.416Z,34.36
2019-03-31T17:21:03.706Z,34.64
2019-03-31T17:23:31.986Z,34.69
2019-03-31T17:26:00.263Z,32.98
2019-03-31T17:28:28.566Z,33.06
2019-03-31T17:30:56.831Z,33.33
2019-03-31T17:33:25.128Z,33.86
2019-03-31T17:35:53.406Z,34.33
2019-03-31T17:38:21.694Z,34.24
2019-03-31T17:40:49.984Z,33.95
2019-03-31T17:43:18.320Z,34.27
2019-03-31T17:45:46.572Z,33.61
2019-03-31T17:48:14.898Z,34.24
2019-03-31T17:50:43.180Z,33.47
2019-03-31T17:53:11.460Z,33.76
2019-03-31T17:55:39.746Z,33.60
2019-03-31T17:58:08.016Z,33.08
2019-03-31T18:00:36.327Z,33.14
2019-03-31T18:03:04.666Z,33.59
2019-03-31T18:05:32.953Z,33.07
2019-03-31T18:08:01.217Z,32.89
2019-03-31T18:10:29.511Z,33.05
2019-03-31T18:12:57.783Z,32.32
2019-03-31T18:15:26.090Z,32.38
2019-03-31T18:17:54.366Z,31.92
2019-03-31T18:20:22.647Z,31.00
2019-03-31T18:22:50.934Z,31.48
2019-03-31T18:25:19.211Z,31.73
2019-03-31T18:27:47.498Z,32.54
2019-03-31T18:30:16.121Z,31.81
2019-03-31T18:32:44.401Z,30.48
2019-03-31T18:35:12.686Z,32.19
2019-03-31T18:37:40.963Z,32.73
2019-03-31T18:40:09.643Z,31.47
2019-03-31T18:42:37.999Z,31.96
2019-03-31T18:45:07.033Z,32.15
2019-03-31T18:47:35.301Z,30.66
2019-03-31T18:50:05.512Z,29.11
2019-03-31T18:52:33.818Z,29.00
2019-03-31T18:55:03.749Z,29.72
2019-03-31T18:57:33.688Z,29.15
2019-03-31T19:00:03.611Z,30.61
2019-03-31T19:02:45.587Z,32.62
2019-03-31T19:05:33.488Z,31.81
2019-03-31T19:08:19.493Z,32.20
2019-03-31T19:11:05.615Z,33.70
2019-03-31T19:13:35.536Z,33.53
2019-03-31T19:16:11.247Z,32.67
2019-03-31T19:18:56.524Z,33.01
2019-03-31T19:21:26.461Z,33.18
2019-03-31T19:23:56.376Z,32.09
2019-03-31T19:26:26.290Z,31.96
2019-03-31T19:29:02.202Z,32.99
2019-03-31T19:31:41.315Z,30.36
2019-03-31T19:34:14.186Z,31.21
2019-03-31T19:37:00.288Z,32.67
2019-03-31T19:39:36.210Z,31.73
2019-03-31T19:42:11.896Z,30.45
2019-03-31T19:44:50.687Z,31.47
2019-03-31T19:47:29.368Z,30.44
2019-03-31T19:49:59.293Z,31.14
2019-03-31T19:52:37.957Z,30.86
2019-03-31T19:55:23.571Z,30.54
2019-03-31T19:58:11.721Z,30.47
2019-03-31T20:00:57.651Z,30.86
2019-03-31T20:03:39.547Z,29.77
2019-03-31T20:06:25.640Z,29.49
2019-03-31T20:09:11.751Z,29.80
2019-03-31T20:11:44.498Z,30.37
2019-03-31T20:14:14.430Z,29.75
2019-03-31T20:16:54.347Z,30.13
2019-03-31T20:19:40.416Z,30.07
2019-03-31T20:22:22.269Z,29.34
2019-03-31T20:25:00.852Z,28.72
2019-03-31T20:27:36.599Z,29.65
2019-03-31T20:30:07.582Z,30.24
2019-03-31T20:32:37.491Z,29.54
2019-03-31T20:35:08.575Z,29.75
2019-03-31T20:37:47.522Z,30.11
2019-03-31T20:40:20.216Z,30.55
2019-03-31T20:42:50.147Z,29.73
2019-03-31T20:45:18.456Z,30.52
2019-03-31T20:47:46.729Z,30.37
2019-03-31T20:50:16.358Z,30.38
2019-03-31T20:52:44.634Z,30.01
2019-03-31T20:55:16.679Z,30.12
2019-03-31T20:57:43.027Z,29.24
2019-03-31T21:00:11.534Z,28.27
2019-03-31T21:02:39.835Z,27.74
2019-03-31T21:05:08.264Z,27.92
2019-03-31T21:07:36.550Z,28.09
2019-03-31T21:10:06.493Z,27.74
2019-03-31T21:12:34.789Z,27.85
2019-03-31T21:15:03.087Z,28.09
2019-03-31T21:17:31.401Z,27.88
2019-03-31T21:19:59.745Z,27.98
2019-03-31T21:22:28.032Z,29.59
2019-03-31T21:24:56.303Z,29.72
2019-03-31T21:27:26.278Z,29.38
2019-03-31T21:29:54.567Z,29.04
2019-03-31T21:32:22.828Z,30.04
2019-03-31T21:34:51.201Z,30.53
2019-03-31T21:37:19.469Z,29.73
2019-03-31T21:39:47.772Z,28.68
2019-03-31T21:42:16.171Z,29.63
2019-03-31T21:44:44.458Z,30.29
2019-03-31T21:47:12.730Z,28.71
2019-03-31T21:49:41.036Z,30.06
2019-03-31T21:52:09.302Z,29.95
2019-03-31T21:54:37.649Z,30.59
2019-03-31T21:57:05.920Z,29.22
2019-03-31T21:59:34.212Z,30.07
2019-03-31T22:02:02.483Z,29.88
2019-03-31T22:04:30.780Z,30.15
2019-03-31T22:06:59.043Z,30.74
2019-03-31T22:09:27.333Z,31.07
2019-03-31T22:11:55.618Z,30.84
2019-03-31T22:14:23.893Z,29.93
2019-03-31T22:16:52.183Z,30.55
2019-03-31T22:19:20.473Z,29.54
2019-03-31T22:21:48.754Z,30.53
2019-03-31T22:24:17.026Z,30.19
2019-03-31T22:26:45.323Z,29.73
2019-03-31T22:29:13.598Z,30.67
2019-03-31T22:31:41.899Z,29.11
2019-03-31T22:34:10.221Z,29.42
2019-03-31T22:36:38.488Z,29.54
2019-03-31T22:39:07.935Z,30.24
2019-03-31T22:41:36.361Z,28.84
2019-03-31T22:44:04.913Z,30.00
2019-03-31T22:46:33.191Z,28.98
2019-03-31T22:49:01.469Z,30.34
2019-03-31T22:51:29.732Z,30.88
2019-03-31T22:53:58.006Z,30.21
2019-03-31T22:56:26.285Z,29.58
2019-03-31T22:58:54.551Z,29.17
2019-03-31T23:01:22.989Z,29.40
2019-03-31T23:03:51.257Z,28.87
2019-03-31T23:06:19.534Z,30.12
2019-03-31T23:08:47.805Z,30.01
2019-03-31T23:11:16.072Z,28.94
2019-03-31T23:13:44.354Z,29.64
2019-03-31T23:16:12.697Z,28.79
2019-03-31T23:18:41.046Z,28.99
2019-03-31T23:21:09.310Z,28.84
2019-03-31T23:23:37.581Z,29.69
2019-03-31T23:26:05.871Z,29.65
2019-03-31T23:28:35.811Z,29.47
2019-03-31T23:31:04.393Z,29.65
2019-03-31T23:33:32.669Z,29.80
2019-03-31T23:36:00.937Z,30.18
2019-03-31T23:38:29.203Z,30.29
2019-03-31T23:40:57.480Z,30.22
2019-03-31T23:43:25.805Z,29.41
2019-03-31T23:45:54.092Z,29.66
2019-03-31T23:48:22.431Z,29.38
2019-03-31T23:50:50.706Z,28.67
2019-03-31T23:53:18.979Z,28.42
2019-03-31T23:55:47.242Z,29.43
2019-03-31T23:58:15.535Z,29.34
